Boston Elite — WDJ5159 — position and weather

sailwx.info

Track history (hours):
 
Tides and Currents Weather Stations Pressure Air Temp Water Temp Dewpoint Dewpoint Depression Visibility Wind Speed Wind Dir Waves Ship Positions

Boston Elite

Owner: Spirit Cruises LLC, Chicago, IL. More information available from US FCC via Universal Licensing System and Coast Guard Vessel Documentation Center.

Last reported at 2018-Jul-13 22:59 UTC. Time now 2018-Jul-16 12:41 UTC.
Position N 42°21' W 071°03'.

Length 30 m; draft 1.7 m.

Type: Ship. MMSI: 367784920.

Date/timePositionNaut miles runAvg speedWind from/ knotsBaromVisibWave heightAir tempDewpointWater temp
2018-Jul-13 22:59N 42°21' W 071°03'1 2.3
2018-Jul-13 22:30N 42°22' W 071°03'1 1.8
2018-Jul-13 22:00N 42°23' W 071°03'1 2.0
2018-Jul-13 21:30N 42°22' W 071°03'1 1.7
2018-Jul-13 21:00N 42°21' W 071°03'0 0.2
2018-Jul-13 20:30N 42°21' W 071°03'0 0.0
2018-Jul-13 20:00N 42°21' W 071°03'0 0.0
2018-Jul-13 19:30N 42°21' W 071°03'0 0.0
2018-Jul-13 19:01N 42°21' W 071°03'0 0.0
2018-Jul-13 18:30N 42°21' W 071°03'0 0.0
2018-Jul-13 18:00N 42°21' W 071°03'0 0.0
2018-Jul-13 17:30N 42°21' W 071°03'1 2.2
2018-Jul-13 17:00N 42°22' W 071°03'1 1.1
2018-Jul-13 16:30N 42°22' W 071°03'1 2.3
2018-Jul-13 16:00N 42°22' W 071°02'0 0.7
2018-Jul-13 15:29N 42°21' W 071°02'0 0.9
2018-Jul-13 15:00N 42°21' W 071°03'0 0.0
2018-Jul-13 02:31N 42°21' W 071°03'0 0.0
2018-Jul-13 02:30N 42°21' W 071°03'1 2.3
2018-Jul-13 01:59N 42°21' W 071°01'1 2.8
2018-Jul-13 01:30N 42°22' W 071°03'1 2.4
2018-Jul-13 01:01N 42°23' W 071°03'0 0.1
2018-Jul-13 00:30N 42°23' W 071°03'1 2.0
2018-Jul-13 00:00N 42°22' W 071°03'1 1.8
2018-Jul-12 23:30N 42°21' W 071°03'0 0.0
2018-Jul-12 23:01N 42°21' W 071°03'0 0.0
2018-Jul-12 22:30N 42°21' W 071°03'0 0.0
2018-Jul-12 00:29N 42°21' W 071°03'1 2.0
2018-Jul-12 00:00N 42°22' W 071°03'0 0.8
2018-Jul-11 23:30N 42°22' W 071°03'1 1.9
2018-Jul-11 23:00N 42°21' W 071°03'0 0.2
2018-Jul-11 22:30N 42°21' W 071°03'0 0.0
2018-Jul-11 22:00N 42°21' W 071°03'0 0.0
2018-Jul-11 21:30N 42°21' W 071°03'0 0.0
2018-Jul-11 21:00N 42°21' W 071°03'0 0.0
2018-Jul-11 20:30N 42°21' W 071°03'0 0.0
2018-Jul-11 20:00N 42°21' W 071°03'0 0.0
2018-Jul-11 19:31N 42°21' W 071°03'0 0.0
2018-Jul-11 19:01N 42°21' W 071°03'1 1.7
2018-Jul-11 18:30N 42°22' W 071°03'1 2.0
2018-Jul-11 18:00N 42°23' W 071°04'1 1.7
2018-Jul-11 17:30N 42°23' W 071°03'1 2.5
2018-Jul-11 17:00N 42°21' W 071°02'2 4.9
2018-Jul-11 16:30N 42°20' W 070°59'1 1.3
2018-Jul-11 16:00N 42°20' W 070°58'2 4.0
2018-Jul-11 15:30N 42°21' W 071°01'2 3.5
2018-Jul-11 15:00N 42°21' W 071°03'0 0.0
2018-Jul-11 00:26N 42°21' W 071°03'2 3.6
2018-Jul-11 00:00N 42°23' W 071°03'0 0.9
2018-Jul-10 23:30N 42°23' W 071°03'1 1.0
2018-Jul-10 23:00N 42°22' W 071°03'1 1.3
2018-Jul-10 22:30N 42°21' W 071°03'0 0.0
2018-Jul-10 22:00N 42°21' W 071°03'0 0.0
2018-Jul-09 02:03N 42°21' W 071°03'0 0.1
2018-Jul-09 02:00N 42°21' W 071°03'3 5.5
2018-Jul-09 01:30N 42°20' W 070°60'3 5.4
2018-Jul-09 01:00N 42°20' W 070°56'2 3.8
2018-Jul-09 00:24N 42°20' W 070°59'2 4.3
2018-Jul-08 23:58N 42°21' W 071°01'2 3.9
2018-Jul-08 23:30N 42°22' W 071°03'0 0.4
2018-Jul-08 23:00N 42°22' W 071°03'1 1.8
2018-Jul-08 22:30N 42°21' W 071°03'0 0.0
2018-Jul-08 21:58N 42°21' W 071°03'0 0.0
2018-Jul-08 21:30N 42°21' W 071°03'  
Track history (hours):
 
Tides and Currents Weather Stations Pressure Air Temp Water Temp Dewpoint Dewpoint Depression Visibility Wind Speed Wind Dir Waves Ship Positions

Boston Elite

Owner: Spirit Cruises LLC, Chicago, IL. More information available from US FCC via Universal Licensing System and Coast Guard Vessel Documentation Center.

Last reported at 2018-Jul-13 22:59 UTC. Time now 2018-Jul-16 12:41 UTC.
Position N 42°21' W 071°03'.

Length 30 m; draft 1.7 m.

Type: Ship. MMSI: 367784920.

Date/timePositionNaut miles runAvg speedWind from/ knotsBaromVisibWave heightAir tempDewpointWater temp
2018-Jul-13 22:59N 42°21' W 071°03'1 2.3
2018-Jul-13 22:30N 42°22' W 071°03'1 1.8
2018-Jul-13 22:00N 42°23' W 071°03'1 2.0
2018-Jul-13 21:30N 42°22' W 071°03'1 1.7
2018-Jul-13 21:00N 42°21' W 071°03'0 0.2
2018-Jul-13 20:30N 42°21' W 071°03'0 0.0
2018-Jul-13 20:00N 42°21' W 071°03'0 0.0
2018-Jul-13 19:30N 42°21' W 071°03'0 0.0
2018-Jul-13 19:01N 42°21' W 071°03'0 0.0
2018-Jul-13 18:30N 42°21' W 071°03'0 0.0
2018-Jul-13 18:00N 42°21' W 071°03'0 0.0
2018-Jul-13 17:30N 42°21' W 071°03'1 2.2
2018-Jul-13 17:00N 42°22' W 071°03'1 1.1
2018-Jul-13 16:30N 42°22' W 071°03'1 2.3
2018-Jul-13 16:00N 42°22' W 071°02'0 0.7
2018-Jul-13 15:29N 42°21' W 071°02'0 0.9
2018-Jul-13 15:00N 42°21' W 071°03'0 0.0
2018-Jul-13 02:31N 42°21' W 071°03'0 0.0
2018-Jul-13 02:30N 42°21' W 071°03'1 2.3
2018-Jul-13 01:59N 42°21' W 071°01'1 2.8
2018-Jul-13 01:30N 42°22' W 071°03'1 2.4
2018-Jul-13 01:01N 42°23' W 071°03'0 0.1
2018-Jul-13 00:30N 42°23' W 071°03'1 2.0
2018-Jul-13 00:00N 42°22' W 071°03'1 1.8
2018-Jul-12 23:30N 42°21' W 071°03'0 0.0
2018-Jul-12 23:01N 42°21' W 071°03'0 0.0
2018-Jul-12 22:30N 42°21' W 071°03'0 0.0
2018-Jul-12 00:29N 42°21' W 071°03'1 2.0
2018-Jul-12 00:00N 42°22' W 071°03'0 0.8
2018-Jul-11 23:30N 42°22' W 071°03'1 1.9
2018-Jul-11 23:00N 42°21' W 071°03'0 0.2
2018-Jul-11 22:30N 42°21' W 071°03'0 0.0
2018-Jul-11 22:00N 42°21' W 071°03'0 0.0
2018-Jul-11 21:30N 42°21' W 071°03'0 0.0
2018-Jul-11 21:00N 42°21' W 071°03'0 0.0
2018-Jul-11 20:30N 42°21' W 071°03'0 0.0
2018-Jul-11 20:00N 42°21' W 071°03'0 0.0
2018-Jul-11 19:31N 42°21' W 071°03'0 0.0
2018-Jul-11 19:01N 42°21' W 071°03'1 1.7
2018-Jul-11 18:30N 42°22' W 071°03'1 2.0
2018-Jul-11 18:00N 42°23' W 071°04'1 1.7
2018-Jul-11 17:30N 42°23' W 071°03'1 2.5
2018-Jul-11 17:00N 42°21' W 071°02'2 4.9
2018-Jul-11 16:30N 42°20' W 070°59'1 1.3
2018-Jul-11 16:00N 42°20' W 070°58'2 4.0
2018-Jul-11 15:30N 42°21' W 071°01'2 3.5
2018-Jul-11 15:00N 42°21' W 071°03'0 0.0
2018-Jul-11 00:26N 42°21' W 071°03'2 3.6
2018-Jul-11 00:00N 42°23' W 071°03'0 0.9
2018-Jul-10 23:30N 42°23' W 071°03'1 1.0
2018-Jul-10 23:00N 42°22' W 071°03'1 1.3
2018-Jul-10 22:30N 42°21' W 071°03'0 0.0
2018-Jul-10 22:00N 42°21' W 071°03'0 0.0
2018-Jul-09 02:03N 42°21' W 071°03'0 0.1
2018-Jul-09 02:00N 42°21' W 071°03'3 5.5
2018-Jul-09 01:30N 42°20' W 070°60'3 5.4
2018-Jul-09 01:00N 42°20' W 070°56'2 3.8
2018-Jul-09 00:24N 42°20' W 070°59'2 4.3
2018-Jul-08 23:58N 42°21' W 071°01'2 3.9
2018-Jul-08 23:30N 42°22' W 071°03'0 0.4
2018-Jul-08 23:00N 42°22' W 071°03'1 1.8
2018-Jul-08 22:30N 42°21' W 071°03'0 0.0
2018-Jul-08 21:58N 42°21' W 071°03'0 0.0
2018-Jul-08 21:30N 42°21' W 071°03'  

Dump ship's entire track history